sensor_id;sensor_type;location;lat;lon;timestamp;P1;durP1;ratioP1;P2;durP2;ratioP2
65189;SDS011;51777;53.570;9.984;2023-05-07T00:01:31;9.80;;;7.00;;
65189;SDS011;51777;53.570;9.984;2023-05-07T00:03:57;10.77;;;7.93;;
65189;SDS011;51777;53.570;9.984;2023-05-07T00:06:22;9.32;;;7.65;;
65189;SDS011;51777;53.570;9.984;2023-05-07T00:08:48;10.90;;;7.28;;
65189;SDS011;51777;53.570;9.984;2023-05-07T00:11:13;10.70;;;7.55;;
65189;SDS011;51777;53.570;9.984;2023-05-07T00:13:39;10.55;;;7.55;;
65189;SDS011;51777;53.570;9.984;2023-05-07T00:16:04;10.40;;;8.10;;
65189;SDS011;51777;53.570;9.984;2023-05-07T00:18:30;11.88;;;8.25;;
65189;SDS011;51777;53.570;9.984;2023-05-07T00:20:55;9.48;;;7.82;;
65189;SDS011;51777;53.570;9.984;2023-05-07T00:23:21;12.63;;;8.85;;
65189;SDS011;51777;53.570;9.984;2023-05-07T00:25:47;11.43;;;8.63;;
65189;SDS011;51777;53.570;9.984;2023-05-07T00:28:12;11.27;;;8.75;;
65189;SDS011;51777;53.570;9.984;2023-05-07T00:30:38;12.20;;;9.27;;
65189;SDS011;51777;53.570;9.984;2023-05-07T00:33:03;11.57;;;8.57;;
65189;SDS011;51777;53.570;9.984;2023-05-07T00:35:29;11.27;;;8.60;;
65189;SDS011;51777;53.570;9.984;2023-05-07T00:37:55;13.63;;;8.85;;
65189;SDS011;51777;53.570;9.984;2023-05-07T00:40:20;11.68;;;8.68;;
65189;SDS011;51777;53.570;9.984;2023-05-07T00:42:46;15.02;;;8.23;;
65189;SDS011;51777;53.570;9.984;2023-05-07T00:45:15;11.07;;;8.63;;
65189;SDS011;51777;53.570;9.984;2023-05-07T00:47:42;9.73;;;7.15;;
65189;SDS011;51777;53.570;9.984;2023-05-07T00:50:08;12.75;;;8.90;;
65189;SDS011;51777;53.570;9.984;2023-05-07T00:52:35;10.15;;;7.93;;
65189;SDS011;51777;53.570;9.984;2023-05-07T00:55:04;14.43;;;7.43;;
65189;SDS011;51777;53.570;9.984;2023-05-07T00:57:32;10.35;;;8.18;;
65189;SDS011;51777;53.570;9.984;2023-05-07T01:00:03;11.18;;;8.00;;
65189;SDS011;51777;53.570;9.984;2023-05-07T01:02:30;11.00;;;7.90;;
65189;SDS011;51777;53.570;9.984;2023-05-07T01:04:55;11.35;;;8.13;;
65189;SDS011;51777;53.570;9.984;2023-05-07T01:07:21;10.07;;;7.82;;
65189;SDS011;51777;53.570;9.984;2023-05-07T01:09:48;10.80;;;6.85;;
65189;SDS011;51777;53.570;9.984;2023-05-07T01:12:14;8.85;;;7.65;;
65189;SDS011;51777;53.570;9.984;2023-05-07T01:14:40;9.77;;;7.28;;
65189;SDS011;51777;53.570;9.984;2023-05-07T01:17:06;12.55;;;7.68;;
65189;SDS011;51777;53.570;9.984;2023-05-07T01:19:32;14.05;;;7.95;;
65189;SDS011;51777;53.570;9.984;2023-05-07T01:22:01;11.68;;;7.97;;
65189;SDS011;51777;53.570;9.984;2023-05-07T01:24:29;13.07;;;7.97;;
65189;SDS011;51777;53.570;9.984;2023-05-07T01:26:56;10.73;;;7.72;;
65189;SDS011;51777;53.570;9.984;2023-05-07T01:29:22;8.13;;;6.57;;
65189;SDS011;51777;53.570;9.984;2023-05-07T01:31:47;8.63;;;7.18;;
65189;SDS011;51777;53.570;9.984;2023-05-07T01:34:15;8.48;;;6.97;;
65189;SDS011;51777;53.570;9.984;2023-05-07T01:36:43;7.60;;;6.50;;
65189;SDS011;51777;53.570;9.984;2023-05-07T01:39:10;11.15;;;7.32;;
65189;SDS011;51777;53.570;9.984;2023-05-07T01:41:36;11.15;;;7.32;;
65189;SDS011;51777;53.570;9.984;2023-05-07T01:44:02;11.30;;;7.18;;
65189;SDS011;51777;53.570;9.984;2023-05-07T01:46:29;9.20;;;7.00;;
65189;SDS011;51777;53.570;9.984;2023-05-07T01:48:56;9.95;;;6.72;;
65189;SDS011;51777;53.570;9.984;2023-05-07T01:51:21;8.55;;;7.00;;
65189;SDS011;51777;53.570;9.984;2023-05-07T01:53:47;9.32;;;7.30;;
65189;SDS011;51777;53.570;9.984;2023-05-07T01:56:16;7.90;;;6.78;;
65189;SDS011;51777;53.570;9.984;2023-05-07T01:58:44;8.98;;;6.95;;
65189;SDS011;51777;53.570;9.984;2023-05-07T02:01:10;8.98;;;6.88;;
65189;SDS011;51777;53.570;9.984;2023-05-07T02:03:36;10.65;;;6.97;;
65189;SDS011;51777;53.570;9.984;2023-05-07T02:06:01;9.68;;;5.82;;
65189;SDS011;51777;53.570;9.984;2023-05-07T02:08:27;9.02;;;6.57;;
65189;SDS011;51777;53.570;9.984;2023-05-07T02:10:52;9.65;;;6.75;;
65189;SDS011;51777;53.570;9.984;2023-05-07T02:13:18;8.35;;;6.53;;
65189;SDS011;51777;53.570;9.984;2023-05-07T02:15:45;9.88;;;6.50;;
65189;SDS011;51777;53.570;9.984;2023-05-07T02:18:14;10.05;;;7.15;;
65189;SDS011;51777;53.570;9.984;2023-05-07T02:20:40;8.63;;;6.03;;
65189;SDS011;51777;53.570;9.984;2023-05-07T02:23:06;10.70;;;6.18;;
65189;SDS011;51777;53.570;9.984;2023-05-07T02:25:31;9.63;;;6.53;;
65189;SDS011;51777;53.570;9.984;2023-05-07T02:27:56;10.02;;;6.68;;
65189;SDS011;51777;53.570;9.984;2023-05-07T02:30:22;8.65;;;6.40;;
65189;SDS011;51777;53.570;9.984;2023-05-07T02:32:48;11.05;;;6.75;;
65189;SDS011;51777;53.570;9.984;2023-05-07T02:35:13;9.32;;;6.20;;
65189;SDS011;51777;53.570;9.984;2023-05-07T02:37:38;11.10;;;6.60;;
65189;SDS011;51777;53.570;9.984;2023-05-07T02:40:04;8.82;;;6.30;;
65189;SDS011;51777;53.570;9.984;2023-05-07T02:42:30;9.00;;;6.00;;
65189;SDS011;51777;53.570;9.984;2023-05-07T02:44:56;9.07;;;6.70;;
65189;SDS011;51777;53.570;9.984;2023-05-07T02:47:21;8.57;;;6.38;;
65189;SDS011;51777;53.570;9.984;2023-05-07T02:49:47;12.77;;;6.60;;
65189;SDS011;51777;53.570;9.984;2023-05-07T02:52:12;8.55;;;6.28;;
65189;SDS011;51777;53.570;9.984;2023-05-07T02:54:38;8.52;;;6.57;;
65189;SDS011;51777;53.570;9.984;2023-05-07T02:57:03;8.77;;;5.90;;
65189;SDS011;51777;53.570;9.984;2023-05-07T02:59:29;9.05;;;6.30;;
65189;SDS011;51777;53.570;9.984;2023-05-07T03:01:54;8.63;;;6.13;;
65189;SDS011;51777;53.570;9.984;2023-05-07T03:04:19;10.00;;;5.80;;
65189;SDS011;51777;53.570;9.984;2023-05-07T03:06:45;8.68;;;6.00;;
65189;SDS011;51777;53.570;9.984;2023-05-07T03:09:11;8.57;;;5.85;;
65189;SDS011;51777;53.570;9.984;2023-05-07T03:11:36;10.52;;;7.05;;
65189;SDS011;51777;53.570;9.984;2023-05-07T03:14:02;10.05;;;6.85;;
65189;SDS011;51777;53.570;9.984;2023-05-07T03:16:27;9.30;;;6.53;;
65189;SDS011;51777;53.570;9.984;2023-05-07T03:18:53;9.93;;;7.18;;
65189;SDS011;51777;53.570;9.984;2023-05-07T03:21:18;11.30;;;7.43;;
65189;SDS011;51777;53.570;9.984;2023-05-07T03:23:44;11.25;;;7.15;;
65189;SDS011;51777;53.570;9.984;2023-05-07T03:26:09;10.35;;;7.50;;
65189;SDS011;51777;53.570;9.984;2023-05-07T03:28:35;9.30;;;7.53;;
65189;SDS011;51777;53.570;9.984;2023-05-07T03:31:00;13.23;;;8.13;;
65189;SDS011;51777;53.570;9.984;2023-05-07T03:33:26;10.85;;;8.07;;
65189;SDS011;51777;53.570;9.984;2023-05-07T03:35:52;10.30;;;7.30;;
65189;SDS011;51777;53.570;9.984;2023-05-07T03:38:18;10.20;;;7.40;;
65189;SDS011;51777;53.570;9.984;2023-05-07T03:40:43;14.25;;;7.45;;
65189;SDS011;51777;53.570;9.984;2023-05-07T03:43:08;9.05;;;7.22;;
65189;SDS011;51777;53.570;9.984;2023-05-07T03:45:34;9.00;;;6.47;;
65189;SDS011;51777;53.570;9.984;2023-05-07T03:48:00;9.77;;;7.05;;
65189;SDS011;51777;53.570;9.984;2023-05-07T03:50:25;8.98;;;6.50;;
65189;SDS011;51777;53.570;9.984;2023-05-07T03:52:51;10.15;;;7.15;;
65189;SDS011;51777;53.570;9.984;2023-05-07T03:55:16;9.82;;;7.32;;
65189;SDS011;51777;53.570;9.984;2023-05-07T03:57:42;12.40;;;7.55;;
65189;SDS011;51777;53.570;9.984;2023-05-07T04:00:07;11.20;;;7.03;;
65189;SDS011;51777;53.570;9.984;2023-05-07T04:02:33;10.27;;;6.80;;
65189;SDS011;51777;53.570;9.984;2023-05-07T04:04:59;8.38;;;6.22;;
65189;SDS011;51777;53.570;9.984;2023-05-07T04:07:24;8.35;;;6.05;;
65189;SDS011;51777;53.570;9.984;2023-05-07T04:09:49;9.48;;;7.28;;
65189;SDS011;51777;53.570;9.984;2023-05-07T04:12:15;7.72;;;6.53;;
65189;SDS011;51777;53.570;9.984;2023-05-07T04:14:40;9.15;;;6.88;;
65189;SDS011;51777;53.570;9.984;2023-05-07T04:17:06;10.23;;;7.00;;
65189;SDS011;51777;53.570;9.984;2023-05-07T04:19:33;10.68;;;7.25;;
65189;SDS011;51777;53.570;9.984;2023-05-07T04:21:58;10.43;;;7.40;;
65189;SDS011;51777;53.570;9.984;2023-05-07T04:24:24;10.30;;;7.10;;
65189;SDS011;51777;53.570;9.984;2023-05-07T04:26:50;9.65;;;6.93;;
65189;SDS011;51777;53.570;9.984;2023-05-07T04:29:16;11.50;;;6.95;;
65189;SDS011;51777;53.570;9.984;2023-05-07T04:31:42;9.45;;;7.20;;
65189;SDS011;51777;53.570;9.984;2023-05-07T04:34:09;9.40;;;6.90;;
65189;SDS011;51777;53.570;9.984;2023-05-07T04:36:36;10.20;;;7.13;;
65189;SDS011;51777;53.570;9.984;2023-05-07T04:39:03;10.32;;;7.00;;
65189;SDS011;51777;53.570;9.984;2023-05-07T04:41:29;9.48;;;7.07;;
65189;SDS011;51777;53.570;9.984;2023-05-07T04:43:54;10.82;;;7.13;;
65189;SDS011;51777;53.570;9.984;2023-05-07T04:46:20;8.82;;;5.90;;
65189;SDS011;51777;53.570;9.984;2023-05-07T04:48:45;9.43;;;6.78;;
65189;SDS011;51777;53.570;9.984;2023-05-07T04:51:11;8.52;;;6.50;;
65189;SDS011;51777;53.570;9.984;2023-05-07T04:53:37;8.18;;;6.28;;
65189;SDS011;51777;53.570;9.984;2023-05-07T04:56:02;8.63;;;6.18;;
65189;SDS011;51777;53.570;9.984;2023-05-07T04:58:28;8.07;;;6.40;;
65189;SDS011;51777;53.570;9.984;2023-05-07T05:00:56;9.93;;;6.60;;
65189;SDS011;51777;53.570;9.984;2023-05-07T05:03:23;8.32;;;5.97;;
65189;SDS011;51777;53.570;9.984;2023-05-07T05:05:51;8.02;;;6.18;;
65189;SDS011;51777;53.570;9.984;2023-05-07T05:08:17;9.45;;;6.63;;
65189;SDS011;51777;53.570;9.984;2023-05-07T05:10:43;7.40;;;5.68;;
65189;SDS011;51777;53.570;9.984;2023-05-07T05:13:09;8.63;;;6.38;;
65189;SDS011;51777;53.570;9.984;2023-05-07T05:15:34;9.13;;;6.32;;
65189;SDS011;51777;53.570;9.984;2023-05-07T05:18:00;8.30;;;6.13;;
65189;SDS011;51777;53.570;9.984;2023-05-07T05:20:25;6.70;;;5.70;;
65189;SDS011;51777;53.570;9.984;2023-05-07T05:22:51;7.40;;;6.10;;
65189;SDS011;51777;53.570;9.984;2023-05-07T05:25:16;8.98;;;6.43;;
65189;SDS011;51777;53.570;9.984;2023-05-07T05:27:42;7.63;;;4.70;;
65189;SDS011;51777;53.570;9.984;2023-05-07T05:30:07;8.57;;;4.70;;
65189;SDS011;51777;53.570;9.984;2023-05-07T05:32:33;9.02;;;6.68;;
65189;SDS011;51777;53.570;9.984;2023-05-07T05:34:58;12.13;;;7.18;;
65189;SDS011;51777;53.570;9.984;2023-05-07T05:37:24;6.32;;;5.35;;
65189;SDS011;51777;53.570;9.984;2023-05-07T05:39:50;9.57;;;6.88;;
65189;SDS011;51777;53.570;9.984;2023-05-07T05:42:15;8.77;;;6.57;;
65189;SDS011;51777;53.570;9.984;2023-05-07T05:44:40;8.38;;;6.60;;
65189;SDS011;51777;53.570;9.984;2023-05-07T05:47:06;8.20;;;6.20;;
65189;SDS011;51777;53.570;9.984;2023-05-07T05:49:31;7.35;;;5.32;;
65189;SDS011;51777;53.570;9.984;2023-05-07T05:51:56;11.18;;;6.40;;
65189;SDS011;51777;53.570;9.984;2023-05-07T05:54:22;7.70;;;6.10;;
65189;SDS011;51777;53.570;9.984;2023-05-07T05:56:47;8.65;;;6.57;;
65189;SDS011;51777;53.570;9.984;2023-05-07T05:59:12;9.88;;;6.90;;
65189;SDS011;51777;53.570;9.984;2023-05-07T06:01:38;9.35;;;6.30;;
65189;SDS011;51777;53.570;9.984;2023-05-07T06:04:03;10.00;;;6.82;;
65189;SDS011;51777;53.570;9.984;2023-05-07T06:06:29;9.80;;;6.40;;
65189;SDS011;51777;53.570;9.984;2023-05-07T06:08:54;8.45;;;6.50;;
65189;SDS011;51777;53.570;9.984;2023-05-07T06:11:20;9.13;;;6.53;;
65189;SDS011;51777;53.570;9.984;2023-05-07T06:13:45;8.10;;;6.32;;
65189;SDS011;51777;53.570;9.984;2023-05-07T06:16:10;11.85;;;6.88;;
65189;SDS011;51777;53.570;9.984;2023-05-07T06:18:36;9.18;;;6.57;;
65189;SDS011;51777;53.570;9.984;2023-05-07T06:21:01;8.75;;;6.40;;
65189;SDS011;51777;53.570;9.984;2023-05-07T06:23:27;7.50;;;5.63;;
65189;SDS011;51777;53.570;9.984;2023-05-07T06:25:52;8.43;;;6.10;;
65189;SDS011;51777;53.570;9.984;2023-05-07T06:28:18;8.68;;;6.72;;
65189;SDS011;51777;53.570;9.984;2023-05-07T06:30:43;8.48;;;6.40;;
65189;SDS011;51777;53.570;9.984;2023-05-07T06:33:09;11.73;;;6.45;;
65189;SDS011;51777;53.570;9.984;2023-05-07T06:35:34;8.63;;;6.47;;
65189;SDS011;51777;53.570;9.984;2023-05-07T06:38:01;7.65;;;6.43;;
65189;SDS011;51777;53.570;9.984;2023-05-07T06:40:26;10.40;;;6.95;;
65189;SDS011;51777;53.570;9.984;2023-05-07T06:42:52;9.88;;;6.28;;
65189;SDS011;51777;53.570;9.984;2023-05-07T06:45:17;8.30;;;5.93;;
65189;SDS011;51777;53.570;9.984;2023-05-07T06:47:44;8.50;;;6.40;;
65189;SDS011;51777;53.570;9.984;2023-05-07T06:50:09;9.45;;;6.28;;
65189;SDS011;51777;53.570;9.984;2023-05-07T06:52:35;10.45;;;6.32;;
65189;SDS011;51777;53.570;9.984;2023-05-07T06:55:00;11.02;;;6.60;;
65189;SDS011;51777;53.570;9.984;2023-05-07T06:57:26;8.75;;;6.50;;
65189;SDS011;51777;53.570;9.984;2023-05-07T06:59:51;5.78;;;4.65;;
65189;SDS011;51777;53.570;9.984;2023-05-07T07:02:17;8.07;;;6.13;;
65189;SDS011;51777;53.570;9.984;2023-05-07T07:04:42;8.00;;;5.82;;
65189;SDS011;51777;53.570;9.984;2023-05-07T07:07:07;9.02;;;5.75;;
65189;SDS011;51777;53.570;9.984;2023-05-07T07:09:33;7.90;;;5.63;;
65189;SDS011;51777;53.570;9.984;2023-05-07T07:11:58;7.43;;;5.43;;
65189;SDS011;51777;53.570;9.984;2023-05-07T07:14:25;9.02;;;5.45;;
65189;SDS011;51777;53.570;9.984;2023-05-07T07:16:50;7.60;;;5.38;;
65189;SDS011;51777;53.570;9.984;2023-05-07T07:19:15;9.02;;;5.45;;
65189;SDS011;51777;53.570;9.984;2023-05-07T07:21:41;11.35;;;5.57;;
65189;SDS011;51777;53.570;9.984;2023-05-07T07:24:07;7.85;;;5.85;;
65189;SDS011;51777;53.570;9.984;2023-05-07T07:26:32;9.85;;;5.60;;
65189;SDS011;51777;53.570;9.984;2023-05-07T07:28:58;7.25;;;5.40;;
65189;SDS011;51777;53.570;9.984;2023-05-07T07:31:23;8.80;;;5.45;;
65189;SDS011;51777;53.570;9.984;2023-05-07T07:33:51;6.82;;;5.60;;
65189;SDS011;51777;53.570;9.984;2023-05-07T07:36:17;7.45;;;4.95;;
65189;SDS011;51777;53.570;9.984;2023-05-07T07:38:42;7.28;;;5.10;;
65189;SDS011;51777;53.570;9.984;2023-05-07T07:41:08;6.20;;;4.88;;
65189;SDS011;51777;53.570;9.984;2023-05-07T07:43:34;6.28;;;5.20;;
65189;SDS011;51777;53.570;9.984;2023-05-07T07:46:00;5.28;;;4.50;;
65189;SDS011;51777;53.570;9.984;2023-05-07T07:48:26;5.45;;;4.95;;
65189;SDS011;51777;53.570;9.984;2023-05-07T07:50:51;6.88;;;5.15;;
65189;SDS011;51777;53.570;9.984;2023-05-07T07:53:17;6.38;;;4.65;;
65189;SDS011;51777;53.570;9.984;2023-05-07T07:55:42;6.65;;;5.00;;
65189;SDS011;51777;53.570;9.984;2023-05-07T07:58:08;7.40;;;5.10;;
65189;SDS011;51777;53.570;9.984;2023-05-07T08:00:33;6.32;;;4.45;;
65189;SDS011;51777;53.570;9.984;2023-05-07T08:02:59;6.28;;;5.20;;
65189;SDS011;51777;53.570;9.984;2023-05-07T08:05:25;7.85;;;4.85;;
65189;SDS011;51777;53.570;9.984;2023-05-07T08:07:50;7.25;;;4.75;;
65189;SDS011;51777;53.570;9.984;2023-05-07T08:10:17;12.25;;;4.97;;
65189;SDS011;51777;53.570;9.984;2023-05-07T08:12:46;7.60;;;4.47;;
65189;SDS011;51777;53.570;9.984;2023-05-07T08:15:13;7.65;;;4.20;;
65189;SDS011;51777;53.570;9.984;2023-05-07T08:17:38;6.25;;;4.57;;
65189;SDS011;51777;53.570;9.984;2023-05-07T08:20:04;5.55;;;4.53;;
65189;SDS011;51777;53.570;9.984;2023-05-07T08:22:30;7.72;;;4.78;;
65189;SDS011;51777;53.570;9.984;2023-05-07T08:24:56;6.18;;;4.45;;
65189;SDS011;51777;53.570;9.984;2023-05-07T08:27:21;5.35;;;4.15;;
65189;SDS011;51777;53.570;9.984;2023-05-07T08:29:46;5.60;;;4.60;;
65189;SDS011;51777;53.570;9.984;2023-05-07T08:32:13;5.57;;;4.55;;
65189;SDS011;51777;53.570;9.984;2023-05-07T08:34:38;5.40;;;4.25;;
65189;SDS011;51777;53.570;9.984;2023-05-07T08:37:04;15.57;;;7.40;;
65189;SDS011;51777;53.570;9.984;2023-05-07T08:39:29;8.18;;;4.80;;
65189;SDS011;51777;53.570;9.984;2023-05-07T08:41:55;8.35;;;4.78;;
65189;SDS011;51777;53.570;9.984;2023-05-07T08:44:23;7.65;;;4.88;;
65189;SDS011;51777;53.570;9.984;2023-05-07T08:46:52;8.77;;;4.97;;
65189;SDS011;51777;53.570;9.984;2023-05-07T08:49:20;5.72;;;4.85;;
65189;SDS011;51777;53.570;9.984;2023-05-07T08:51:46;7.22;;;5.20;;
65189;SDS011;51777;53.570;9.984;2023-05-07T08:54:12;6.75;;;5.15;;
65189;SDS011;51777;53.570;9.984;2023-05-07T08:56:41;6.88;;;5.20;;
65189;SDS011;51777;53.570;9.984;2023-05-07T08:59:06;7.45;;;5.25;;
65189;SDS011;51777;53.570;9.984;2023-05-07T09:01:32;5.82;;;4.70;;
65189;SDS011;51777;53.570;9.984;2023-05-07T09:03:57;5.72;;;4.88;;
65189;SDS011;51777;53.570;9.984;2023-05-07T09:06:23;6.13;;;5.25;;
65189;SDS011;51777;53.570;9.984;2023-05-07T09:08:49;7.53;;;4.72;;
65189;SDS011;51777;53.570;9.984;2023-05-07T09:11:16;6.28;;;4.57;;
65189;SDS011;51777;53.570;9.984;2023-05-07T09:13:44;7.75;;;4.88;;
65189;SDS011;51777;53.570;9.984;2023-05-07T09:16:13;6.68;;;4.85;;
65189;SDS011;51777;53.570;9.984;2023-05-07T09:18:42;6.55;;;4.97;;
65189;SDS011;51777;53.570;9.984;2023-05-07T09:21:11;8.45;;;4.65;;
65189;SDS011;51777;53.570;9.984;2023-05-07T09:23:41;6.15;;;4.57;;
65189;SDS011;51777;53.570;9.984;2023-05-07T09:26:07;5.35;;;4.13;;
65189;SDS011;51777;53.570;9.984;2023-05-07T09:28:37;6.15;;;4.63;;
65189;SDS011;51777;53.570;9.984;2023-05-07T09:31:12;5.15;;;4.47;;
65189;SDS011;51777;53.570;9.984;2023-05-07T09:33:38;6.10;;;4.32;;
65189;SDS011;51777;53.570;9.984;2023-05-07T09:36:04;5.70;;;4.25;;
65189;SDS011;51777;53.570;9.984;2023-05-07T09:38:32;5.88;;;4.28;;
65189;SDS011;51777;53.570;9.984;2023-05-07T09:41:06;6.00;;;4.03;;
65189;SDS011;51777;53.570;9.984;2023-05-07T09:43:38;5.88;;;4.85;;
65189;SDS011;51777;53.570;9.984;2023-05-07T09:46:11;6.40;;;4.63;;
65189;SDS011;51777;53.570;9.984;2023-05-07T09:48:38;4.50;;;3.97;;
65189;SDS011;51777;53.570;9.984;2023-05-07T09:51:06;6.55;;;3.97;;
65189;SDS011;51777;53.570;9.984;2023-05-07T09:53:40;7.07;;;4.72;;
65189;SDS011;51777;53.570;9.984;2023-05-07T09:56:07;7.00;;;4.13;;
65189;SDS011;51777;53.570;9.984;2023-05-07T09:58:33;4.88;;;4.20;;
65189;SDS011;51777;53.570;9.984;2023-05-07T10:01:02;7.30;;;4.07;;
65189;SDS011;51777;53.570;9.984;2023-05-07T10:03:28;5.35;;;4.30;;
65189;SDS011;51777;53.570;9.984;2023-05-07T10:05:58;8.45;;;4.30;;
65189;SDS011;51777;53.570;9.984;2023-05-07T10:08:24;4.88;;;4.07;;
65189;SDS011;51777;53.570;9.984;2023-05-07T10:10:50;4.30;;;3.90;;
65189;SDS011;51777;53.570;9.984;2023-05-07T10:13:16;5.03;;;4.20;;
65189;SDS011;51777;53.570;9.984;2023-05-07T10:15:42;5.18;;;4.22;;
65189;SDS011;51777;53.570;9.984;2023-05-07T10:18:07;5.72;;;4.38;;
65189;SDS011;51777;53.570;9.984;2023-05-07T10:20:34;5.00;;;4.13;;
65189;SDS011;51777;53.570;9.984;2023-05-07T10:23:01;5.45;;;4.22;;
65189;SDS011;51777;53.570;9.984;2023-05-07T10:25:30;5.65;;;4.05;;
65189;SDS011;51777;53.570;9.984;2023-05-07T10:27:59;6.00;;;4.38;;
65189;SDS011;51777;53.570;9.984;2023-05-07T10:30:37;5.32;;;4.15;;
65189;SDS011;51777;53.570;9.984;2023-05-07T10:33:13;5.40;;;4.20;;
65189;SDS011;51777;53.570;9.984;2023-05-07T10:35:42;8.18;;;4.18;;
65189;SDS011;51777;53.570;9.984;2023-05-07T10:38:10;7.10;;;4.05;;
65189;SDS011;51777;53.570;9.984;2023-05-07T10:40:35;5.75;;;4.13;;
65189;SDS011;51777;53.570;9.984;2023-05-07T10:43:02;5.85;;;4.00;;
65189;SDS011;51777;53.570;9.984;2023-05-07T10:45:32;6.55;;;4.25;;
65189;SDS011;51777;53.570;9.984;2023-05-07T10:48:19;4.80;;;3.90;;
65189;SDS011;51777;53.570;9.984;2023-05-07T10:50:44;7.28;;;3.83;;
65189;SDS011;51777;53.570;9.984;2023-05-07T10:58:29;7.93;;;3.95;;
65189;SDS011;51777;53.570;9.984;2023-05-07T11:00:59;6.25;;;3.80;;
65189;SDS011;51777;53.570;9.984;2023-05-07T11:03:26;5.75;;;3.63;;
65189;SDS011;51777;53.570;9.984;2023-05-07T11:11:17;3.90;;;3.50;;
65189;SDS011;51777;53.570;9.984;2023-05-07T11:13:46;3.60;;;3.30;;
65189;SDS011;51777;53.570;9.984;2023-05-07T11:16:16;5.32;;;3.65;;
65189;SDS011;51777;53.570;9.984;2023-05-07T11:18:53;3.90;;;3.50;;
65189;SDS011;51777;53.570;9.984;2023-05-07T11:21:36;3.72;;;3.22;;
65189;SDS011;51777;53.570;9.984;2023-05-07T11:24:03;4.53;;;3.60;;
65189;SDS011;51777;53.570;9.984;2023-05-07T11:26:30;4.30;;;3.53;;
65189;SDS011;51777;53.570;9.984;2023-05-07T11:29:10;5.05;;;3.60;;
65189;SDS011;51777;53.570;9.984;2023-05-07T11:31:48;4.70;;;3.58;;
65189;SDS011;51777;53.570;9.984;2023-05-07T11:34:15;4.93;;;3.80;;
65189;SDS011;51777;53.570;9.984;2023-05-07T11:36:46;4.53;;;3.35;;
65189;SDS011;51777;53.570;9.984;2023-05-07T11:41:51;5.05;;;3.50;;
65189;SDS011;51777;53.570;9.984;2023-05-07T11:44:17;3.78;;;3.40;;
65189;SDS011;51777;53.570;9.984;2023-05-07T11:46:42;5.78;;;3.45;;
65189;SDS011;51777;53.570;9.984;2023-05-07T11:49:09;6.60;;;3.35;;
65189;SDS011;51777;53.570;9.984;2023-05-07T11:51:35;4.68;;;3.22;;
65189;SDS011;51777;53.570;9.984;2023-05-07T11:54:03;4.10;;;3.05;;
65189;SDS011;51777;53.570;9.984;2023-05-07T11:56:29;4.85;;;2.97;;
65189;SDS011;51777;53.570;9.984;2023-05-07T11:58:58;7.20;;;3.30;;
65189;SDS011;51777;53.570;9.984;2023-05-07T12:01:24;3.78;;;3.08;;
65189;SDS011;51777;53.570;9.984;2023-05-07T12:03:49;3.15;;;2.90;;
65189;SDS011;51777;53.570;9.984;2023-05-07T12:06:15;4.28;;;2.80;;
65189;SDS011;51777;53.570;9.984;2023-05-07T12:08:42;2.97;;;2.13;;
65189;SDS011;51777;53.570;9.984;2023-05-07T12:11:11;3.75;;;2.63;;
65189;SDS011;51777;53.570;9.984;2023-05-07T12:16:09;5.10;;;2.90;;
65189;SDS011;51777;53.570;9.984;2023-05-07T12:18:35;3.05;;;2.70;;
65189;SDS011;51777;53.570;9.984;2023-05-07T12:21:02;5.72;;;2.40;;
65189;SDS011;51777;53.570;9.984;2023-05-07T12:23:29;4.43;;;2.50;;
65189;SDS011;51777;53.570;9.984;2023-05-07T12:25:54;5.82;;;2.70;;
65189;SDS011;51777;53.570;9.984;2023-05-07T12:28:20;2.58;;;2.38;;
65189;SDS011;51777;53.570;9.984;2023-05-07T12:30:46;6.47;;;2.42;;
65189;SDS011;51777;53.570;9.984;2023-05-07T12:33:17;3.65;;;2.33;;
65189;SDS011;51777;53.570;9.984;2023-05-07T12:35:44;2.67;;;2.33;;
65189;SDS011;51777;53.570;9.984;2023-05-07T12:38:13;3.13;;;2.28;;
65189;SDS011;51777;53.570;9.984;2023-05-07T12:40:41;2.35;;;2.15;;
65189;SDS011;51777;53.570;9.984;2023-05-07T12:43:14;2.40;;;2.20;;
65189;SDS011;51777;53.570;9.984;2023-05-07T12:45:41;2.60;;;2.30;;
65189;SDS011;51777;53.570;9.984;2023-05-07T12:48:09;3.70;;;2.38;;
65189;SDS011;51777;53.570;9.984;2023-05-07T12:50:36;2.28;;;2.08;;
65189;SDS011;51777;53.570;9.984;2023-05-07T12:53:05;5.32;;;2.35;;
65189;SDS011;51777;53.570;9.984;2023-05-07T12:55:44;5.00;;;3.38;;
65189;SDS011;51777;53.570;9.984;2023-05-07T12:58:14;18.13;;;9.20;;
65189;SDS011;51777;53.570;9.984;2023-05-07T13:00:41;2.33;;;2.13;;
65189;SDS011;51777;53.570;9.984;2023-05-07T13:03:08;4.97;;;2.78;;
65189;SDS011;51777;53.570;9.984;2023-05-07T13:05:33;4.15;;;2.15;;
65189;SDS011;51777;53.570;9.984;2023-05-07T13:07:58;3.60;;;2.50;;
65189;SDS011;51777;53.570;9.984;2023-05-07T13:10:24;4.50;;;2.03;;
65189;SDS011;51777;53.570;9.984;2023-05-07T13:12:50;4.05;;;2.03;;
65189;SDS011;51777;53.570;9.984;2023-05-07T13:15:16;4.15;;;2.40;;
65189;SDS011;51777;53.570;9.984;2023-05-07T13:17:42;4.13;;;2.38;;
65189;SDS011;51777;53.570;9.984;2023-05-07T13:20:11;4.32;;;2.40;;
65189;SDS011;51777;53.570;9.984;2023-05-07T13:22:40;2.75;;;2.33;;
65189;SDS011;51777;53.570;9.984;2023-05-07T13:25:06;3.25;;;2.60;;
65189;SDS011;51777;53.570;9.984;2023-05-07T13:27:32;3.53;;;2.25;;
65189;SDS011;51777;53.570;9.984;2023-05-07T13:30:00;2.20;;;2.00;;
65189;SDS011;51777;53.570;9.984;2023-05-07T13:32:26;2.65;;;2.10;;
65189;SDS011;51777;53.570;9.984;2023-05-07T13:34:51;5.05;;;1.95;;
65189;SDS011;51777;53.570;9.984;2023-05-07T13:37:16;2.00;;;1.90;;
65189;SDS011;51777;53.570;9.984;2023-05-07T13:39:42;4.95;;;3.03;;
65189;SDS011;51777;53.570;9.984;2023-05-07T13:42:07;4.32;;;1.63;;
65189;SDS011;51777;53.570;9.984;2023-05-07T13:44:32;2.70;;;1.90;;
65189;SDS011;51777;53.570;9.984;2023-05-07T13:46:58;7.88;;;1.85;;
65189;SDS011;51777;53.570;9.984;2023-05-07T13:49:23;3.88;;;2.60;;
65189;SDS011;51777;53.570;9.984;2023-05-07T13:51:49;4.22;;;2.25;;
65189;SDS011;51777;53.570;9.984;2023-05-07T13:54:14;1.70;;;1.60;;
65189;SDS011;51777;53.570;9.984;2023-05-07T13:56:40;1.67;;;1.58;;
65189;SDS011;51777;53.570;9.984;2023-05-07T13:59:06;4.22;;;1.70;;
65189;SDS011;51777;53.570;9.984;2023-05-07T14:01:32;3.33;;;1.52;;
65189;SDS011;51777;53.570;9.984;2023-05-07T14:03:57;1.63;;;1.52;;
65189;SDS011;51777;53.570;9.984;2023-05-07T14:06:24;4.32;;;2.45;;
65189;SDS011;51777;53.570;9.984;2023-05-07T14:08:50;3.70;;;1.95;;
65189;SDS011;51777;53.570;9.984;2023-05-07T14:11:15;2.15;;;1.50;;
65189;SDS011;51777;53.570;9.984;2023-05-07T14:13:41;1.55;;;1.40;;
65189;SDS011;51777;53.570;9.984;2023-05-07T14:16:06;1.63;;;1.25;;
65189;SDS011;51777;53.570;9.984;2023-05-07T14:18:31;1.17;;;1.17;;
65189;SDS011;51777;53.570;9.984;2023-05-07T14:20:58;1.40;;;1.30;;
65189;SDS011;51777;53.570;9.984;2023-05-07T14:23:24;1.63;;;1.52;;
65189;SDS011;51777;53.570;9.984;2023-05-07T14:25:51;2.78;;;1.50;;
65189;SDS011;51777;53.570;9.984;2023-05-07T14:28:19;1.80;;;1.60;;
65189;SDS011;51777;53.570;9.984;2023-05-07T14:30:46;5.30;;;1.85;;
65189;SDS011;51777;53.570;9.984;2023-05-07T14:33:12;2.03;;;1.48;;
65189;SDS011;51777;53.570;9.984;2023-05-07T14:35:37;3.45;;;1.17;;
65189;SDS011;51777;53.570;9.984;2023-05-07T14:38:03;1.40;;;1.23;;
65189;SDS011;51777;53.570;9.984;2023-05-07T14:40:28;3.60;;;1.70;;
65189;SDS011;51777;53.570;9.984;2023-05-07T14:42:53;3.88;;;1.63;;
65189;SDS011;51777;53.570;9.984;2023-05-07T14:45:20;1.85;;;1.67;;
65189;SDS011;51777;53.570;9.984;2023-05-07T14:47:46;2.30;;;1.40;;
65189;SDS011;51777;53.570;9.984;2023-05-07T14:50:11;1.33;;;1.23;;
65189;SDS011;51777;53.570;9.984;2023-05-07T14:52:36;4.03;;;1.20;;
65189;SDS011;51777;53.570;9.984;2023-05-07T14:55:02;2.10;;;1.23;;
65189;SDS011;51777;53.570;9.984;2023-05-07T14:57:27;4.20;;;1.20;;